createdAt,value
2022-11-27T00:01:00.652Z,2.03
2022-11-27T00:03:28.047Z,2.02
2022-11-27T00:05:56.735Z,1.98
2022-11-27T00:08:25.334Z,2.00
2022-11-27T00:10:52.259Z,1.81
2022-11-27T00:13:19.169Z,1.96
2022-11-27T00:15:46.053Z,1.66
2022-11-27T00:18:12.765Z,1.84
2022-11-27T00:20:39.932Z,1.80
2022-11-27T00:23:06.557Z,1.58
2022-11-27T00:25:33.293Z,1.54
2022-11-27T00:27:59.909Z,1.46
2022-11-27T00:30:26.548Z,1.29
2022-11-27T00:32:53.137Z,1.36
2022-11-27T00:35:19.767Z,1.40
2022-11-27T00:37:46.435Z,1.43
2022-11-27T00:40:13.284Z,1.38
2022-11-27T00:42:40.012Z,1.39
2022-11-27T00:45:07.557Z,1.38
2022-11-27T00:47:34.293Z,1.58
2022-11-27T00:50:00.915Z,1.62
2022-11-27T00:52:27.593Z,1.55
2022-11-27T00:54:54.296Z,1.80
2022-11-27T00:57:20.893Z,1.57
2022-11-27T00:59:47.540Z,1.68
2022-11-27T01:02:14.285Z,1.65
2022-11-27T01:04:41.313Z,1.47
2022-11-27T01:07:08.247Z,1.32
2022-11-27T01:09:34.901Z,1.51
2022-11-27T01:12:01.623Z,1.53
2022-11-27T01:14:28.285Z,1.56
2022-11-27T01:16:55.128Z,1.70
2022-11-27T01:19:21.752Z,1.69
2022-11-27T01:21:48.401Z,1.67
2022-11-27T01:24:16.487Z,1.77
2022-11-27T01:26:43.699Z,1.58
2022-11-27T01:29:11.298Z,1.65
2022-11-27T01:31:38.058Z,1.48
2022-11-27T01:34:09.235Z,1.45
2022-11-27T01:36:36.042Z,1.56
2022-11-27T01:39:04.099Z,1.60
2022-11-27T01:41:34.265Z,1.69
2022-11-27T01:44:03.998Z,1.57
2022-11-27T01:46:44.251Z,1.43
2022-11-27T01:49:10.938Z,1.66
2022-11-27T01:51:43.166Z,1.52
2022-11-27T01:54:10.998Z,1.74
2022-11-27T01:56:40.489Z,1.71
2022-11-27T01:59:08.039Z,1.37
2022-11-27T02:01:34.883Z,1.67
2022-11-27T02:04:01.894Z,1.74
2022-11-27T02:06:29.364Z,1.64
2022-11-27T02:08:56.613Z,1.67
2022-11-27T02:11:50.343Z,1.61
2022-11-27T02:14:46.125Z,1.65
2022-11-27T02:17:42.297Z,1.34
2022-11-27T02:20:36.679Z,1.46
2022-11-27T02:23:40.430Z,1.44
2022-11-27T02:26:43.684Z,1.45
2022-11-27T02:29:16.406Z,1.21
2022-11-27T02:32:04.537Z,1.18
2022-11-27T02:34:50.970Z,1.30
2022-11-27T02:37:42.761Z,1.23
2022-11-27T02:40:21.643Z,1.16
2022-11-27T02:42:54.352Z,1.20
2022-11-27T02:45:31.387Z,0.93
2022-11-27T02:47:59.015Z,0.98
2022-11-27T02:50:28.436Z,0.84
2022-11-27T02:53:00.242Z,0.95
2022-11-27T02:55:30.897Z,1.03
2022-11-27T02:58:00.796Z,1.01
2022-11-27T03:00:29.302Z,0.81
2022-11-27T03:03:03.942Z,0.94
2022-11-27T03:05:36.200Z,0.99
2022-11-27T03:08:10.266Z,1.01
2022-11-27T03:10:47.598Z,1.04
2022-11-27T03:13:14.542Z,0.94
2022-11-27T03:15:57.310Z,0.94
2022-11-27T03:18:40.630Z,0.89
2022-11-27T03:21:38.962Z,1.02
2022-11-27T03:24:09.989Z,0.86
2022-11-27T03:26:38.159Z,0.79
2022-11-27T03:29:14.577Z,0.98
2022-11-27T03:31:41.461Z,1.01
2022-11-27T03:34:08.537Z,1.01
2022-11-27T03:36:35.164Z,0.99
2022-11-27T03:39:02.481Z,0.91
2022-11-27T03:41:41.207Z,1.01
2022-11-27T03:44:32.574Z,0.89
2022-11-27T03:47:15.938Z,0.99
2022-11-27T03:50:05.114Z,0.93
2022-11-27T03:52:59.370Z,0.84
2022-11-27T03:55:37.777Z,0.85
2022-11-27T03:58:09.555Z,0.80
2022-11-27T04:00:40.488Z,0.68
2022-11-27T04:03:11.483Z,0.83
2022-11-27T04:05:38.615Z,0.84
2022-11-27T04:08:05.857Z,0.77
2022-11-27T04:10:32.413Z,0.72
2022-11-27T04:12:58.995Z,0.68
2022-11-27T04:15:25.649Z,0.92
2022-11-27T04:17:52.219Z,0.89
2022-11-27T04:20:18.807Z,0.95
2022-11-27T04:22:45.403Z,0.82
2022-11-27T04:25:12.097Z,0.74
2022-11-27T04:27:38.671Z,0.55
2022-11-27T04:30:05.772Z,0.43
2022-11-27T04:32:32.396Z,0.40
2022-11-27T04:34:59.006Z,0.63
2022-11-27T04:37:25.971Z,0.54
2022-11-27T04:39:55.430Z,0.45
2022-11-27T04:42:22.097Z,0.61
2022-11-27T04:44:48.699Z,0.78
2022-11-27T04:47:15.405Z,0.64
2022-11-27T04:49:42.006Z,0.57
2022-11-27T04:52:10.804Z,0.49
2022-11-27T04:54:38.055Z,0.69
2022-11-27T04:57:05.015Z,0.48
2022-11-27T04:59:31.609Z,0.37
2022-11-27T05:01:58.621Z,0.39
2022-11-27T05:04:25.383Z,0.45
2022-11-27T05:06:52.021Z,0.47
2022-11-27T05:09:18.696Z,0.31
2022-11-27T05:11:45.680Z,0.51
2022-11-27T05:14:15.269Z,0.32
2022-11-27T05:16:42.876Z,0.02
2022-11-27T05:19:10.739Z,0.25
2022-11-27T05:21:38.450Z,-0.15
2022-11-27T05:24:05.549Z,0.10
2022-11-27T05:26:32.596Z,0.29
2022-11-27T05:28:59.298Z,0.37
2022-11-27T05:31:25.945Z,0.24
2022-11-27T05:33:52.609Z,0.25
2022-11-27T05:36:19.318Z,0.27
2022-11-27T05:38:45.987Z,0.36
2022-11-27T05:41:12.895Z,0.44
2022-11-27T05:43:39.590Z,0.13
2022-11-27T05:46:07.625Z,0.46
2022-11-27T05:48:35.484Z,0.37
2022-11-27T05:51:02.605Z,0.31
2022-11-27T05:53:29.363Z,0.22
2022-11-27T05:56:12.198Z,0.41
2022-11-27T05:58:40.363Z,0.51
2022-11-27T06:01:09.024Z,0.20
2022-11-27T06:03:35.860Z,0.20
2022-11-27T06:06:10.257Z,0.18
2022-11-27T06:08:40.773Z,0.12
2022-11-27T06:11:13.257Z,0.02
2022-11-27T06:13:40.603Z,-0.13
2022-11-27T06:16:22.031Z,0.08
2022-11-27T06:18:50.953Z,0.08
2022-11-27T06:21:17.763Z,0.11
2022-11-27T06:23:44.623Z,0.12
2022-11-27T06:26:11.614Z,0.09
2022-11-27T06:28:38.314Z,0.10
2022-11-27T06:31:06.958Z,-0.10
2022-11-27T06:33:34.075Z,0.14
2022-11-27T06:36:01.244Z,0.14
2022-11-27T06:38:27.904Z,0.33
2022-11-27T06:40:54.497Z,0.10
2022-11-27T06:43:21.144Z,0.16
2022-11-27T06:45:55.946Z,0.26
2022-11-27T06:48:22.712Z,0.25
2022-11-27T06:50:49.375Z,0.29
2022-11-27T06:53:16.013Z,0.04
2022-11-27T06:55:42.652Z,0.10
2022-11-27T06:58:09.245Z,-0.03
2022-11-27T07:00:36.051Z,-0.09
2022-11-27T07:03:03.097Z,0.17
2022-11-27T07:05:30.064Z,-0.15
2022-11-27T07:07:58.128Z,0.12
2022-11-27T07:10:24.756Z,-0.12
2022-11-27T07:12:51.384Z,0.09
2022-11-27T07:15:18.009Z,-0.09
2022-11-27T07:17:44.607Z,0.16
2022-11-27T07:20:11.536Z,0.07
2022-11-27T07:22:38.131Z,-0.20
2022-11-27T07:25:05.174Z,0.19
2022-11-27T07:27:31.861Z,0.14
2022-11-27T07:29:58.408Z,0.14
2022-11-27T07:32:25.001Z,0.19
2022-11-27T07:34:51.635Z,0.17
2022-11-27T07:37:18.282Z,0.04
2022-11-27T07:40:02.016Z,-0.01
2022-11-27T07:42:37.946Z,0.03
2022-11-27T07:45:09.108Z,0.21
2022-11-27T07:47:35.864Z,-0.04
2022-11-27T07:50:02.900Z,0.01
2022-11-27T07:52:29.559Z,0.16
2022-11-27T07:54:56.276Z,0.17
2022-11-27T07:57:22.886Z,0.40
2022-11-27T07:59:49.581Z,0.23
2022-11-27T08:02:18.427Z,0.47
2022-11-27T08:04:45.294Z,0.29
2022-11-27T08:07:12.077Z,0.32
2022-11-27T08:09:40.021Z,0.04
2022-11-27T08:12:07.332Z,0.26
2022-11-27T08:14:34.210Z,0.17
2022-11-27T08:17:00.849Z,0.22
2022-11-27T08:19:27.608Z,0.29
2022-11-27T08:21:56.201Z,0.24
2022-11-27T08:24:22.814Z,-0.02
2022-11-27T08:26:49.392Z,0.11
2022-11-27T08:29:16.055Z,0.31
2022-11-27T08:31:42.722Z,0.17
2022-11-27T08:34:09.348Z,0.23
2022-11-27T08:36:35.933Z,-0.02
2022-11-27T08:39:02.543Z,0.27
2022-11-27T08:41:29.156Z,0.04
2022-11-27T08:43:55.778Z,-0.16
2022-11-27T08:46:22.393Z,0.08
2022-11-27T08:48:49.030Z,0.17
2022-11-27T08:51:16.568Z,-0.09
2022-11-27T08:53:45.549Z,-0.20
2022-11-27T08:56:17.920Z,-0.02
2022-11-27T08:58:44.884Z,0.01
2022-11-27T09:01:15.880Z,-0.03
2022-11-27T09:03:42.666Z,-0.09
2022-11-27T09:06:12.481Z,-0.10
2022-11-27T09:08:40.389Z,0.11
2022-11-27T09:11:08.041Z,0.26
2022-11-27T09:13:37.001Z,0.16
2022-11-27T09:16:05.467Z,0.21
2022-11-27T09:18:32.426Z,0.12
2022-11-27T09:21:04.768Z,0.07
2022-11-27T09:23:32.075Z,0.19
2022-11-27T09:26:03.314Z,0.19
2022-11-27T09:28:31.816Z,0.44
2022-11-27T09:31:00.573Z,0.56
2022-11-27T09:33:28.978Z,0.40
2022-11-27T09:35:56.111Z,0.26
2022-11-27T09:38:23.847Z,0.33
2022-11-27T09:41:03.111Z,0.40
2022-11-27T09:43:34.619Z,0.31
2022-11-27T09:46:09.320Z,0.37
2022-11-27T09:48:42.263Z,0.72
2022-11-27T09:51:19.668Z,0.76
2022-11-27T09:53:50.352Z,0.75
2022-11-27T09:56:18.903Z,0.57
2022-11-27T09:58:56.072Z,0.49
2022-11-27T10:01:38.442Z,0.54
2022-11-27T10:04:15.540Z,0.64
2022-11-27T10:06:48.165Z,0.38
2022-11-27T10:09:14.795Z,0.33
2022-11-27T10:11:44.335Z,0.38
2022-11-27T10:14:32.719Z,0.46
2022-11-27T10:17:15.713Z,0.55
2022-11-27T10:19:51.384Z,0.64
2022-11-27T10:22:46.038Z,0.77
2022-11-27T10:25:20.508Z,0.65
2022-11-27T10:27:59.261Z,0.91
2022-11-27T10:30:27.107Z,0.88
2022-11-27T10:32:57.375Z,0.78
2022-11-27T10:35:27.202Z,0.59
2022-11-27T10:38:25.141Z,0.80
2022-11-27T10:40:54.664Z,0.68
2022-11-27T10:43:24.629Z,0.85
2022-11-27T10:46:27.665Z,0.88
2022-11-27T10:48:54.336Z,0.58
2022-11-27T10:51:37.028Z,0.65
2022-11-27T10:54:07.404Z,0.57
2022-11-27T10:56:46.954Z,0.68
2022-11-27T10:59:22.432Z,0.67
2022-11-27T11:01:55.522Z,0.77
2022-11-27T11:04:42.258Z,0.85
2022-11-27T11:07:25.565Z,0.80
2022-11-27T11:09:53.378Z,0.82
2022-11-27T11:12:22.385Z,0.82
2022-11-27T11:14:57.101Z,0.95
2022-11-27T11:17:30.542Z,0.82
2022-11-27T11:19:57.430Z,0.87
2022-11-27T11:22:24.570Z,0.57
2022-11-27T11:24:53.220Z,0.86
2022-11-27T11:27:32.208Z,0.75
2022-11-27T11:30:01.589Z,0.82
2022-11-27T11:32:40.153Z,0.77
2022-11-27T11:35:32.667Z,1.06
2022-11-27T11:37:59.436Z,0.98
2022-11-27T11:40:27.931Z,1.00
2022-11-27T11:43:01.007Z,0.86
2022-11-27T11:45:33.004Z,1.05
2022-11-27T11:48:36.463Z,0.78
2022-11-27T11:51:32.023Z,1.00
2022-11-27T11:54:37.538Z,0.97
2022-11-27T11:57:18.922Z,1.09
2022-11-27T11:59:58.988Z,0.98
2022-11-27T12:02:47.643Z,1.06
2022-11-27T12:05:33.066Z,0.98
2022-11-27T12:08:07.561Z,0.85
2022-11-27T12:10:50.229Z,0.89
2022-11-27T12:13:30.312Z,0.71
2022-11-27T12:16:07.610Z,0.70
2022-11-27T12:18:37.158Z,0.68
2022-11-27T12:21:26.106Z,0.79
2022-11-27T12:24:43.581Z,0.99
2022-11-27T12:27:33.395Z,1.12
2022-11-27T12:29:59.917Z,1.05
2022-11-27T12:32:43.908Z,0.56
2022-11-27T12:35:39.433Z,1.03
2022-11-27T12:38:24.157Z,1.00
2022-11-27T12:41:27.636Z,1.16
2022-11-27T12:44:00.123Z,1.02
2022-11-27T12:46:40.852Z,1.03
2022-11-27T12:49:47.753Z,1.05
2022-11-27T12:52:19.687Z,1.00
2022-11-27T12:54:58.502Z,0.94
2022-11-27T12:57:34.098Z,1.17
2022-11-27T13:00:19.816Z,1.10
2022-11-27T13:03:07.889Z,1.09
2022-11-27T13:05:49.678Z,1.18
2022-11-27T13:08:23.913Z,0.99
2022-11-27T13:11:03.966Z,1.16
2022-11-27T13:13:35.465Z,1.10
2022-11-27T13:16:18.687Z,1.04
2022-11-27T13:18:57.948Z,1.02
2022-11-27T13:21:29.123Z,1.05
2022-11-27T13:23:55.907Z,1.18
2022-11-27T13:26:31.327Z,0.53
2022-11-27T13:29:02.102Z,0.54
2022-11-27T13:31:35.379Z,0.93
2022-11-27T13:34:07.264Z,1.02
2022-11-27T13:36:41.891Z,1.03
2022-11-27T13:39:23.598Z,1.01
2022-11-27T13:42:02.379Z,0.98
2022-11-27T13:44:30.026Z,1.04
2022-11-27T13:47:06.358Z,1.24
2022-11-27T13:49:36.204Z,1.14
2022-11-27T13:52:19.871Z,1.09
2022-11-27T13:55:22.498Z,0.99
2022-11-27T13:57:57.798Z,0.71
2022-11-27T14:00:43.020Z,1.02
2022-11-27T14:03:29.234Z,0.81
2022-11-27T14:05:57.582Z,0.03
2022-11-27T14:08:26.600Z,0.74
2022-11-27T14:10:58.800Z,0.70
2022-11-27T14:13:42.142Z,0.55
2022-11-27T14:16:32.303Z,0.80
2022-11-27T14:19:01.961Z,0.90
2022-11-27T14:21:42.841Z,0.91
2022-11-27T14:24:55.617Z,0.90
2022-11-27T14:27:32.899Z,0.77
2022-11-27T14:30:21.334Z,0.98
2022-11-27T14:32:49.323Z,0.91
2022-11-27T14:35:25.323Z,1.06
2022-11-27T14:37:52.070Z,0.86
2022-11-27T14:40:25.377Z,1.02
2022-11-27T14:42:52.074Z,0.96
2022-11-27T14:45:22.352Z,0.72
2022-11-27T14:47:51.551Z,0.81
2022-11-27T14:50:20.794Z,0.91
2022-11-27T14:52:53.776Z,0.86
2022-11-27T14:55:21.675Z,0.96
2022-11-27T14:57:50.299Z,1.10
2022-11-27T15:00:25.190Z,0.78
2022-11-27T15:02:52.131Z,0.98
2022-11-27T15:05:20.745Z,1.07
2022-11-27T15:07:50.978Z,0.97
2022-11-27T15:10:38.402Z,0.98
2022-11-27T15:13:06.386Z,1.16
2022-11-27T15:15:39.861Z,0.88
2022-11-27T15:18:08.643Z,0.95
2022-11-27T15:20:41.258Z,1.03
2022-11-27T15:23:35.307Z,0.94
2022-11-27T15:26:02.097Z,1.02
2022-11-27T15:28:42.655Z,0.97
2022-11-27T15:31:37.207Z,0.97
2022-11-27T15:34:16.394Z,1.05
2022-11-27T15:37:06.846Z,1.10
2022-11-27T15:39:46.621Z,1.09
2022-11-27T15:42:14.617Z,0.93
2022-11-27T15:44:41.808Z,0.94
2022-11-27T15:47:40.264Z,0.96
2022-11-27T15:50:07.868Z,0.93
2022-11-27T15:52:34.458Z,1.08
2022-11-27T15:55:01.071Z,0.83
2022-11-27T15:57:27.688Z,0.94
2022-11-27T15:59:54.293Z,0.76
2022-11-27T16:02:20.960Z,0.80
2022-11-27T16:04:47.632Z,0.99
2022-11-27T16:07:14.649Z,1.05
2022-11-27T16:09:41.305Z,0.72
2022-11-27T16:12:08.037Z,0.90
2022-11-27T16:14:34.725Z,1.01
2022-11-27T16:17:01.805Z,1.01
2022-11-27T16:19:28.766Z,0.84
2022-11-27T16:21:56.788Z,0.90
2022-11-27T16:24:23.619Z,0.78
2022-11-27T16:26:50.260Z,0.86
2022-11-27T16:29:16.914Z,1.04
2022-11-27T16:31:43.912Z,1.01
2022-11-27T16:34:11.322Z,1.08
2022-11-27T16:36:43.859Z,1.06
2022-11-27T16:39:11.920Z,1.16
2022-11-27T16:41:39.371Z,1.06
2022-11-27T16:44:11.766Z,1.07
2022-11-27T16:46:39.192Z,1.11
2022-11-27T16:49:09.757Z,0.70
2022-11-27T16:51:39.247Z,0.88
2022-11-27T16:54:09.694Z,0.86
2022-11-27T16:56:38.385Z,0.63
2022-11-27T16:59:15.773Z,0.68
2022-11-27T17:01:43.788Z,0.79
2022-11-27T17:04:18.396Z,0.83
2022-11-27T17:06:46.056Z,0.84
2022-11-27T17:09:13.264Z,0.74
2022-11-27T17:11:43.330Z,0.92
2022-11-27T17:14:10.848Z,0.84
2022-11-27T17:16:41.243Z,0.85
2022-11-27T17:19:14.322Z,0.97
2022-11-27T17:21:41.613Z,0.86
2022-11-27T17:24:15.342Z,0.88
2022-11-27T17:26:44.813Z,0.86
2022-11-27T17:29:13.722Z,0.86
2022-11-27T17:31:40.752Z,0.95
2022-11-27T17:34:10.811Z,1.01
2022-11-27T17:36:38.800Z,0.75
2022-11-27T17:39:06.278Z,0.85
2022-11-27T17:41:33.638Z,0.79
2022-11-27T17:44:00.479Z,0.75
2022-11-27T17:46:29.076Z,1.09
2022-11-27T17:48:59.096Z,1.25
2022-11-27T17:51:27.774Z,1.24
2022-11-27T17:53:54.856Z,1.08
2022-11-27T17:56:23.177Z,0.80
2022-11-27T17:58:50.136Z,1.00
2022-11-27T18:01:25.053Z,0.89
2022-11-27T18:03:55.596Z,1.03
2022-11-27T18:06:23.184Z,1.06
2022-11-27T18:08:52.345Z,1.05
2022-11-27T18:11:22.385Z,1.09
2022-11-27T18:13:50.369Z,0.83
2022-11-27T18:16:28.963Z,1.17
2022-11-27T18:18:57.511Z,1.16
2022-11-27T18:21:26.999Z,1.33
2022-11-27T18:24:22.017Z,1.10
2022-11-27T18:29:28.593Z,1.03
2022-11-27T18:31:56.620Z,1.15
2022-11-27T18:34:26.021Z,1.02
2022-11-27T18:36:57.232Z,1.21
2022-11-27T18:39:24.023Z,1.00
2022-11-27T18:41:50.891Z,0.96
2022-11-27T18:44:17.616Z,0.91
2022-11-27T18:46:44.353Z,1.00
2022-11-27T18:49:11.160Z,0.82
2022-11-27T18:51:37.801Z,1.07
2022-11-27T18:54:04.776Z,1.08
2022-11-27T18:56:32.319Z,1.10
2022-11-27T18:59:04.143Z,1.06
2022-11-27T19:01:40.964Z,1.09
2022-11-27T19:04:09.508Z,1.04
2022-11-27T19:06:37.121Z,0.97
2022-11-27T19:09:05.029Z,1.04
2022-11-27T19:11:32.800Z,1.27
2022-11-27T19:13:59.810Z,1.26
2022-11-27T19:16:32.340Z,1.12
2022-11-27T19:19:00.465Z,1.05
2022-11-27T19:21:29.843Z,1.07
2022-11-27T19:23:58.909Z,1.17
2022-11-27T19:26:28.788Z,1.05
2022-11-27T19:28:58.568Z,1.12
2022-11-27T19:31:26.424Z,1.11
2022-11-27T19:33:58.813Z,1.22
2022-11-27T19:36:26.016Z,1.21
2022-11-27T19:38:59.036Z,1.02
2022-11-27T19:41:27.199Z,0.84
2022-11-27T19:44:04.778Z,0.84
2022-11-27T19:46:34.825Z,1.12
2022-11-27T19:49:13.981Z,1.19
2022-11-27T19:51:41.070Z,1.28
2022-11-27T19:54:10.579Z,1.04
2022-11-27T19:56:40.081Z,0.93
2022-11-27T19:59:07.846Z,1.03
2022-11-27T20:01:35.886Z,1.07
2022-11-27T20:04:03.988Z,1.23
2022-11-27T20:06:31.281Z,1.13
2022-11-27T20:09:03.820Z,1.19
2022-11-27T20:11:34.923Z,1.17
2022-11-27T20:14:05.288Z,0.99
2022-11-27T20:16:34.407Z,1.05
2022-11-27T20:19:05.375Z,1.32
2022-11-27T20:21:33.965Z,1.10
2022-11-27T20:24:02.715Z,1.22
2022-11-27T20:26:30.612Z,1.25
2022-11-27T20:28:58.999Z,1.19
2022-11-27T20:31:33.845Z,1.09
2022-11-27T20:34:04.150Z,1.26
2022-11-27T20:36:34.167Z,1.31
2022-11-27T20:39:01.878Z,1.20
2022-11-27T20:41:29.446Z,1.36
2022-11-27T20:43:59.125Z,1.11
2022-11-27T20:46:26.684Z,1.22
2022-11-27T20:48:54.532Z,1.22
2022-11-27T20:51:24.049Z,1.21
2022-11-27T20:53:51.956Z,1.10
2022-11-27T20:56:20.046Z,1.32
2022-11-27T20:58:47.969Z,1.27
2022-11-27T21:01:17.172Z,1.18
2022-11-27T21:03:44.479Z,1.03
2022-11-27T21:06:11.120Z,1.28
2022-11-27T21:08:38.167Z,1.09
2022-11-27T21:11:13.590Z,1.14
2022-11-27T21:13:40.940Z,1.21
2022-11-27T21:16:10.611Z,1.27
2022-11-27T21:18:38.416Z,1.28
2022-11-27T21:21:12.908Z,1.43
2022-11-27T21:23:42.590Z,1.31
2022-11-27T21:26:11.142Z,1.13
2022-11-27T21:28:39.054Z,1.37
2022-11-27T21:31:17.323Z,1.14
2022-11-27T21:33:47.925Z,1.26
2022-11-27T21:36:15.025Z,1.19
2022-11-27T21:38:42.589Z,1.34
2022-11-27T21:41:12.770Z,1.27
2022-11-27T21:43:41.025Z,1.34
2022-11-27T21:46:09.468Z,1.40
2022-11-27T21:48:36.158Z,1.32
2022-11-27T21:51:04.685Z,1.34
2022-11-27T21:53:33.752Z,1.33
2022-11-27T21:56:05.124Z,1.11
2022-11-27T21:58:34.230Z,1.12
2022-11-27T22:01:01.960Z,1.27
2022-11-27T22:03:29.032Z,0.49
2022-11-27T22:06:01.668Z,1.11
2022-11-27T22:08:29.956Z,1.06
2022-11-27T22:10:57.050Z,0.87
2022-11-27T22:13:24.173Z,0.99
2022-11-27T22:15:52.149Z,0.89
2022-11-27T22:18:18.760Z,1.03
2022-11-27T22:20:45.580Z,0.84
2022-11-27T22:23:12.272Z,0.69
2022-11-27T22:25:38.943Z,0.87
2022-11-27T22:28:06.025Z,0.94
2022-11-27T22:30:32.835Z,0.74
2022-11-27T22:32:59.731Z,0.71
2022-11-27T22:35:26.493Z,0.77
2022-11-27T22:37:54.138Z,0.63
2022-11-27T22:40:22.419Z,0.89
2022-11-27T22:42:50.053Z,0.76
2022-11-27T22:45:17.225Z,0.78
2022-11-27T22:47:43.850Z,0.68
2022-11-27T22:50:10.786Z,0.84
2022-11-27T22:52:37.604Z,0.74
2022-11-27T22:55:04.555Z,0.91
2022-11-27T22:57:33.979Z,0.59
2022-11-27T23:00:00.582Z,0.79
2022-11-27T23:02:27.247Z,0.63
2022-11-27T23:04:53.841Z,0.71
2022-11-27T23:07:24.971Z,0.81
2022-11-27T23:09:52.178Z,0.54
2022-11-27T23:12:18.848Z,0.66
2022-11-27T23:14:45.408Z,0.52
2022-11-27T23:17:12.091Z,0.82
2022-11-27T23:19:38.695Z,0.77
2022-11-27T23:22:05.391Z,0.80
2022-11-27T23:24:32.316Z,0.67
2022-11-27T23:26:58.980Z,0.61
2022-11-27T23:29:25.598Z,0.72
2022-11-27T23:31:52.275Z,0.68
2022-11-27T23:34:18.915Z,0.30
2022-11-27T23:36:45.846Z,0.74
2022-11-27T23:39:13.663Z,0.43
2022-11-27T23:41:40.702Z,0.50
2022-11-27T23:44:07.770Z,0.67
2022-11-27T23:46:34.581Z,0.51
2022-11-27T23:49:01.305Z,0.56
2022-11-27T23:51:31.073Z,0.20
2022-11-27T23:53:58.956Z,0.61
2022-11-27T23:56:28.464Z,0.63
2022-11-27T23:58:56.548Z,0.64
